Latest Weather Observations for Mackay

IDQ60801

Issued at 5:32 pm EST Tuesday 17 October 2017 (issued every 30 minutes, with the page automatically refreshed every 10 minutes)

About weather observations | Map of weather stations | Latest weather observations for QLD | Other Formats
Station Details ID: 033119 Name: MACKAY M.O Lat: -21.12 Lon: 149.22 Height: 30.26 m
Data from the previous 72 hours. | See also: Recent months at Mackay
Date/Time
EST
Temp
°C
App
Temp
°C
Dew
Point
°C
Rel
Hum
%
Delta-T
°C
Wind Press
QNH
hPa
Press
MSL
hPa
Rain since
9am
mm
Dir  Spd
km/h
Gust
km/h
Spd
kts
Gust
kts
17/05:30pm 24.5 26.9 21.6 84 1.9 ESE 11 17 6 9 1012.1 1011.9 2.4
17/05:00pm 24.6 27.6 21.3 82 2.2 SE 7 13 4 7 1011.6 1011.4 2.4
17/04:30pm 24.8 27.6 21.5 82 2.2 SSE 9 15 5 8 1011.1 1010.9 2.4
17/04:00pm 24.8 27.6 21.5 82 2.2 SSE 9 15 5 8 1010.8 1010.7 2.4
17/03:30pm 25.1 27.0 20.6 76 2.9 SSE 11 15 6 8 1010.7 1010.6 2.4
17/03:00pm 26.4 28.6 21.2 73 3.4 SE 11 17 6 9 1010.7 1010.6 2.4
17/02:30pm 25.7 27.9 21.1 76 3.0 SSE 11 19 6 10 1010.7 1010.6 2.4
17/02:00pm 25.9 27.3 21.8 78 2.7 SSE 17 24 9 13 1010.8 1010.7 2.4
17/01:30pm 26.4 29.1 22.9 81 2.4 SSE 13 22 7 12 1011.2 1011.0 2.4
17/01:00pm 24.7 26.7 21.6 83 2.1 SSE 13 20 7 11 1011.9 1011.7 2.2
17/12:30pm 25.8 27.8 20.8 74 3.3 ESE 11 17 6 9 1012.2 1012.0 2.2
17/12:00pm 26.0 29.6 22.3 80 2.5 SSE 7 15 4 8 1012.7 1012.5 2.2
17/11:30am 25.2 27.1 20.5 75 3.1 E 11 17 6 9 1013.0 1012.8 2.2
17/11:00am 25.0 27.1 20.9 78 2.7 E 11 17 6 9 1013.2 1013.0 2.2
17/10:30am 24.3 26.1 21.2 83 2.0 E 13 19 7 10 1013.6 1013.4 2.2
17/10:00am 24.0 26.5 21.7 87 1.5 ESE 11 17 6 9 1013.9 1013.7 2.2
17/09:53am 23.8 26.0 21.1 85 1.8 ESE 11 20 6 11 1013.8 1013.6 2.2
17/09:40am 22.9 24.7 21.9 94 0.7 S 15 22 8 12 1013.6 1013.4 2.2
17/09:30am 23.2 25.5 22.0 93 0.8 SSE 13 19 7 10 1013.6 1013.4 1.4
17/09:13am 24.1 25.8 21.6 86 1.7 SSE 15 24 8 13 1013.5 1013.3 0.0
17/09:00am 24.3 26.7 22.2 88 1.4 S 13 20 7 11 1013.3 1013.1 7.0
17/08:30am 23.7 25.4 21.6 88 1.4 S 15 26 8 14 1013.5 1013.3 7.0
17/08:13am 23.5 25.3 21.8 90 1.1 S 15 20 8 11 1013.2 1013.0 7.0
17/08:00am 23.3 24.4 21.2 88 1.4 S 17 22 9 12 1012.8 1012.6 7.0
17/07:30am 22.1 24.0 21.3 95 0.5 SSW 13 17 7 9 1012.7 1012.5 7.0
17/07:00am 20.6 22.0 20.4 99 0.1 SSW 13 17 7 9 1011.8 1011.6 7.0
17/06:30am 20.0 21.2 19.8 99 0.1 SW 13 19 7 10 1011.4 1011.2 7.0
17/06:00am 19.7 21.1 19.5 99 0.1 SW 11 15 6 8 1011.1 1010.9 7.0
17/05:30am 19.7 21.1 19.5 99 0.1 SW 11 13 6 7 1010.5 1010.4 7.0
17/05:00am 19.8 21.2 19.6 99 0.1 SSW 11 15 6 8 1010.1 1010.0 7.0
17/04:30am 19.7 21.1 19.5 99 0.1 SW 11 13 6 7 1010.0 1009.9 7.0
17/04:00am 20.0 21.5 19.8 99 0.1 SW 11 13 6 7 1010.2 1010.1 7.0
17/03:30am 19.9 21.8 19.7 99 0.1 SSW 9 13 5 7 1010.0 1009.9 7.0
17/03:00am 19.7 21.5 19.5 99 0.1 SW 9 13 5 7 1010.2 1010.1 7.0
17/02:30am 19.5 21.1 19.2 98 0.2 SW 9 11 5 6 1010.8 1010.7 7.0
17/02:00am 19.5 20.8 19.2 98 0.2 WSW 11 13 6 7 1011.5 1011.3 7.0
17/01:30am 19.5 21.1 19.2 98 0.2 SW 9 13 5 7 1011.6 1011.4 7.0
17/01:00am 19.5 20.8 19.2 98 0.2 WSW 11 17 6 9 1012.2 1012.0 7.0
17/12:30am 19.6 20.1 19.3 98 0.2 WSW 15 19 8 10 1012.6 1012.4 7.0
17/12:00am 19.6 21.3 19.3 98 0.2 WSW 9 13 5 7 1012.7 1012.5 7.0
 
Date/Time
EST
Temp
°C
App
Temp
°C
Dew
Point
°C
Rel
Hum
%
Delta-T
°C
Wind Press
QNH
hPa
Press
MSL
hPa
Rain since
9am
mm
Dir  Spd
km/h
Gust
km/h
Spd
kts
Gust
kts
16/11:30pm 19.8 21.6 19.6 99 0.1 SW 9 13 5 7 1012.7 1012.5 7.0
16/11:00pm 19.6 21.3 19.3 98 0.2 WSW 9 11 5 6 1013.0 1012.8 7.0
16/10:30pm 19.7 21.4 19.4 98 0.2 WSW 9 15 5 8 1013.0 1012.8 6.8
16/10:00pm 19.9 21.3 19.6 98 0.2 SW 11 13 6 7 1013.2 1013.0 3.6
16/09:30pm 20.0 21.3 19.3 96 0.4 WSW 11 19 6 10 1013.7 1013.5 1.8
16/09:00pm 20.3 21.1 19.1 93 0.8 WSW 13 19 7 10 1013.4 1013.2 1.0
16/08:30pm 21.9 24.7 20.4 91 1.0 NE 6 9 3 5 1013.0 1012.8 0.6
16/08:00pm 22.4 24.6 20.5 89 1.2 ENE 9 13 5 7 1012.5 1012.3 0.2
16/07:30pm 22.6 24.3 20.1 86 1.6 ENE 11 17 6 9 1012.1 1011.9 0.0
16/07:00pm 23.1 24.3 19.9 82 2.1 E 13 17 7 9 1011.9 1011.7 0.0
16/06:30pm 23.0 24.2 19.8 82 2.1 E 13 17 7 9 1011.7 1011.5 0.0
16/06:00pm 23.4 24.7 19.3 78 2.6 ENE 11 20 6 11 1011.6 1011.4 0.0
16/05:30pm 23.7 24.3 19.4 77 2.8 E 15 24 8 13 1011.1 1010.9 0.0
16/05:00pm 23.8 24.4 19.5 77 2.8 E 15 28 8 15 1010.7 1010.6 0.0
16/04:30pm 23.8 24.4 19.5 77 2.8 ESE 15 26 8 14 1010.4 1010.3 0.0
16/04:00pm 24.0 24.5 19.3 75 3.0 ESE 15 24 8 13 1010.1 1010.0 0.0
16/03:30pm 24.0 24.3 19.7 77 2.8 SE 17 30 9 16 1009.9 1009.8 0.0
16/03:00pm 24.0 23.9 19.9 78 2.7 SE 20 30 11 16 1009.7 1009.6 0.0
16/02:30pm 23.7 23.9 19.4 77 2.8 SE 17 24 9 13 1010.1 1010.0 0.0
16/02:00pm 23.9 24.7 19.0 74 3.1 SE 13 24 7 13 1010.5 1010.4 0.0
16/01:30pm 24.1 24.6 19.2 74 3.1 SSE 15 24 8 13 1010.7 1010.6 0.0
16/01:00pm 24.3 24.0 19.1 73 3.3 SSE 19 32 10 17 1010.7 1010.6 0.0
16/12:30pm 24.7 24.8 19.1 71 3.6 SSE 17 30 9 16 1011.2 1011.0 0.0
16/12:00pm 24.4 24.4 19.0 72 3.4 SSE 17 26 9 14 1011.8 1011.6 0.0
16/11:30am 24.2 24.4 19.3 74 3.1 S 17 24 9 13 1012.3 1012.1 0.0
16/11:00am 24.0 23.6 18.9 73 3.2 S 19 26 10 14 1012.7 1012.5 0.0
16/10:30am 23.8 23.6 19.3 76 2.9 S 19 28 10 15 1013.0 1012.8 0.0
16/10:00am 23.3 22.8 19.2 78 2.6 S 20 28 11 15 1013.1 1012.9 0.0
16/09:30am 23.1 22.9 19.3 79 2.4 S 19 28 10 15 1013.2 1013.0 0.0
16/09:00am 22.3 22.4 19.1 82 2.0 S 17 28 9 15 1013.2 1013.0 1.0
16/08:30am 22.5 22.4 19.5 83 1.9 S 19 26 10 14 1013.0 1012.8 1.0
16/08:00am 22.2 22.0 19.4 84 1.8 S 19 28 10 15 1012.9 1012.7 1.0
16/07:30am 22.0 21.7 19.5 86 1.6 S 20 28 11 15 1012.7 1012.5 1.0
16/07:00am 21.8 22.1 19.7 88 1.3 S 17 26 9 14 1012.3 1012.1 1.0
16/06:30am 21.5 21.9 19.8 90 1.1 S 17 24 9 13 1012.0 1011.8 1.0
16/06:00am 21.1 21.5 19.9 93 0.8 S 17 24 9 13 1012.0 1011.8 1.0
16/05:30am 21.0 21.9 20.0 94 0.6 S 15 20 8 11 1011.8 1011.6 1.0
16/05:00am 20.8 21.2 19.8 94 0.6 SSW 17 22 9 12 1011.4 1011.2 1.0
16/04:30am 21.4 22.0 20.2 93 0.8 S 17 33 9 18 1011.0 1010.8 1.0
16/04:00am 21.4 22.9 19.7 90 1.1 SSW 11 17 6 9 1010.5 1010.4 0.8
16/03:30am 22.2 22.8 19.4 84 1.8 SSW 15 24 8 13 1010.3 1010.2 0.0
16/03:00am 23.5 23.7 19.4 78 2.6 SSE 17 28 9 15 1010.2 1010.1 0.0
16/02:30am 23.5 23.7 19.4 78 2.6 SSE 17 26 9 14 1010.3 1010.2 0.0
16/02:00am 23.5 23.6 19.2 77 2.7 SSE 17 26 9 14 1010.4 1010.3 0.0
16/01:30am 23.5 23.3 19.4 78 2.6 SSE 19 30 10 16 1010.6 1010.5 0.0
16/01:00am 23.4 23.4 19.8 80 2.3 SSE 19 35 10 19 1010.6 1010.5 0.0
16/12:30am 23.7 23.6 19.6 78 2.6 SE 19 30 10 16 1011.0 1010.8 0.0
16/12:00am 23.6 23.4 19.3 77 2.8 SE 19 30 10 16 1011.4 1011.2 0.0
 
Date/Time
EST
Temp
°C
App
Temp
°C
Dew
Point
°C
Rel
Hum
%
Delta-T
°C
Wind Press
QNH
hPa
Press
MSL
hPa
Rain since
9am
mm
Dir  Spd
km/h
Gust
km/h
Spd
kts
Gust
kts
15/11:30pm 23.7 24.0 19.6 78 2.6 SE 17 30 9 16 1012.0 1011.8 0.0
15/11:00pm 23.7 23.9 19.4 77 2.8 SE 17 28 9 15 1012.0 1011.8 0.0
15/10:30pm 23.7 23.9 19.4 77 2.8 SE 17 26 9 14 1012.0 1011.8 0.0
15/10:00pm 23.8 25.3 19.7 78 2.6 SE 11 20 6 11 1012.2 1012.0 0.0
15/09:30pm 23.9 24.4 19.2 75 3.0 ESE 15 24 8 13 1012.3 1012.1 0.0
15/09:00pm 23.9 24.5 19.4 76 2.9 SE 15 22 8 12 1012.0 1011.8 0.0
15/08:30pm 24.0 25.5 19.7 77 2.8 SE 11 17 6 9 1011.7 1011.5 0.0
15/08:00pm 23.9 25.0 19.6 77 2.8 SE 13 20 7 11 1011.7 1011.5 0.0
15/07:30pm 23.9 25.2 19.4 76 2.9 ESE 11 19 6 10 1011.6 1011.4 0.0
15/07:00pm 24.0 25.1 19.7 77 2.8 ESE 13 20 7 11 1011.1 1010.9 0.0
15/06:30pm 24.1 25.8 19.4 75 3.0 ESE 9 17 5 9 1010.7 1010.6 0.0
15/06:00pm 24.1 25.3 19.8 77 2.8 ESE 13 20 7 11 1010.0 1009.9 0.0
15/05:30pm 24.3 25.3 20.2 78 2.7 ESE 15 22 8 12 1009.6 1009.5 0.0
15/05:00pm 24.3 24.5 19.4 74 3.1 E 17 28 9 15 1009.3 1009.2 0.0
15/04:30pm 24.5 25.0 20.0 76 2.9 ESE 17 26 9 14 1009.2 1009.1 0.0
15/04:00pm 25.6 26.2 20.2 72 3.5 SE 17 32 9 17 1009.2 1009.1 0.0
15/03:30pm 25.4 25.8 19.8 71 3.6 ESE 17 28 9 15 1009.3 1009.2 0.0
15/03:00pm 24.4 24.9 20.1 77 2.8 ESE 17 26 9 14 1009.3 1009.2 0.0
15/02:30pm 25.0 25.5 20.0 74 3.2 ESE 17 28 9 15 1009.7 1009.6 0.0
15/02:00pm 27.7 29.2 21.3 68 4.3 ESE 15 24 8 13 1010.3 1010.2 0.0
15/01:30pm 25.9 26.3 19.8 69 4.0 SE 17 28 9 15 1010.0 1009.9 0.0
15/01:00pm 26.4 26.8 19.8 67 4.3 SE 17 26 9 14 1010.5 1010.4 0.0
15/12:30pm 26.7 28.0 20.8 70 3.9 ESE 15 26 8 14 1010.7 1010.6 0.0
15/12:00pm 26.2 27.1 20.1 69 4.0 SE 15 26 8 14 1011.2 1011.0 0.0
15/11:30am 27.1 28.3 20.7 68 4.2 SE 15 26 8 14 1011.7 1011.5 0.0
15/11:00am 25.9 25.9 19.8 69 4.0 SE 19 28 10 15 1012.1 1011.9 0.0
15/10:30am 26.2 26.5 20.5 71 3.7 SE 19 30 10 16 1012.1 1011.9 0.0
15/10:00am 26.9 28.6 21.6 72 3.5 SSE 15 24 8 13 1012.2 1012.0 0.0
15/09:30am 25.8 27.1 20.1 71 3.7 SSE 13 20 7 11 1012.4 1012.2 0.0
15/09:00am 25.7 26.8 20.5 73 3.4 SSE 15 20 8 11 1012.4 1012.2 4.4
15/08:30am 25.0 26.2 20.7 77 2.8 SSE 15 26 8 14 1012.3 1012.1 4.4
15/08:00am 25.3 27.3 20.8 76 3.0 ESE 11 20 6 11 1012.1 1011.9 4.4
15/07:30am 24.5 27.5 22.0 86 1.7 SSE 9 13 5 7 1011.9 1011.7 4.4
15/07:00am 23.2 24.7 20.5 85 1.8 SSE 13 19 7 10 1011.5 1011.3 4.4
15/06:59am 23.2 24.6 20.3 84 1.9 SSE 13 19 7 10 1011.5 1011.3 4.4
15/06:41am 23.7 26.4 22.1 91 1.1 S 11 17 6 9 1011.2 1011.0 4.4
15/06:30am 22.7 25.6 21.7 94 0.7 S 9 15 5 8 1011.1 1010.9 4.4
15/06:00am 21.4 22.4 20.2 93 0.8 SW 15 20 8 11 1010.8 1010.7 4.4
15/05:30am 22.2 24.4 20.3 89 1.2 SE 9 17 5 9 1010.7 1010.6 4.4
15/05:00am 21.8 23.4 19.9 89 1.2 E 11 19 6 10 1010.4 1010.3 4.4
15/04:30am 23.3 23.8 20.1 82 2.1 E 17 26 9 14 1010.4 1010.3 3.4
15/04:00am 23.7 25.0 20.2 81 2.3 ESE 13 20 7 11 1010.1 1010.0 3.4
15/03:30am 23.6 24.0 19.9 80 2.4 E 17 24 9 13 1010.0 1009.9 3.4
15/03:00am 23.4 24.9 20.5 84 1.9 ESE 13 24 7 13 1010.1 1010.0 3.4
15/02:30am 23.7 24.4 20.4 82 2.1 ESE 17 28 9 15 1010.3 1010.2 3.4
15/02:00am 23.8 25.7 20.5 82 2.2 ESE 11 20 6 11 1010.6 1010.5 3.4
15/01:30am 23.8 25.4 20.7 83 2.0 ESE 13 20 7 11 1011.0 1010.8 3.4
15/01:00am 23.5 24.5 20.2 82 2.1 ESE 15 26 8 14 1011.3 1011.1 3.4
15/12:30am 23.3 24.5 19.9 81 2.2 ESE 13 20 7 11 1011.6 1011.4 3.4
15/12:00am 22.6 23.6 20.3 87 1.5 E 15 24 8 13 1011.9 1011.7 3.4
 
Date/Time
EST
Temp
°C
App
Temp
°C
Dew
Point
°C
Rel
Hum
%
Delta-T
°C
Wind Press
QNH
hPa
Press
MSL
hPa
Rain since
9am
mm
Dir  Spd
km/h
Gust
km/h
Spd
kts
Gust
kts
14/11:30pm 23.7 25.5 20.4 82 2.1 ESE 11 22 6 12 1011.9 1011.7 0.6
14/11:00pm 22.7 23.3 19.5 82 2.0 ESE 15 22 8 12 1012.1 1011.9 0.6
14/10:30pm 23.9 24.4 20.0 79 2.5 E 17 24 9 13 1012.2 1012.0 0.2
14/10:00pm 23.6 25.9 20.7 84 1.9 E 9 15 5 8 1012.5 1012.3 0.2
14/09:30pm 24.3 26.6 20.6 80 2.4 E 9 15 5 8 1012.5 1012.3 0.2
14/09:00pm 24.3 26.1 19.6 75 3.0 ESE 9 19 5 10 1012.6 1012.4 0.0
14/08:30pm 24.3 26.4 20.2 78 2.7 ESE 9 15 5 8 1012.4 1012.2 0.0
14/08:00pm 24.3 25.8 19.8 76 2.9 ESE 11 17 6 9 1012.4 1012.2 0.0
14/07:30pm 24.2 26.1 20.5 80 2.4 SE 11 17 6 9 1012.3 1012.1 0.0
14/07:00pm 24.2 25.5 20.1 78 2.7 SE 13 19 7 10 1011.9 1011.7 0.0
14/06:30pm 24.3 26.0 20.2 78 2.7 SE 11 19 6 10 1011.7 1011.5 0.0
14/06:00pm 24.5 26.2 20.2 77 2.8 SE 11 22 6 12 1011.4 1011.2 0.0

Other Formats:

Comma delimited format used in spreadsheet applications
http://www.bom.gov.au/fwo/IDQ60801/IDQ60801.94367.axf

JavaScript Object Notation format (JSON) in row-major order
http://www.bom.gov.au/fwo/IDQ60801/IDQ60801.94367.json